sensor_id;sensor_type;location;lat;lon;timestamp;P1;durP1;ratioP1;P2;durP2;ratioP2
70301;SDS011;57706;56.326;43.882;2023-07-13T00:00:41;4.55;;;3.80;;
70301;SDS011;57706;56.326;43.882;2023-07-13T00:03:08;7.78;;;3.72;;
70301;SDS011;57706;56.326;43.882;2023-07-13T00:05:35;4.28;;;3.60;;
70301;SDS011;57706;56.326;43.882;2023-07-13T00:08:00;5.93;;;4.57;;
70301;SDS011;57706;56.326;43.882;2023-07-13T00:10:26;6.75;;;4.45;;
70301;SDS011;57706;56.326;43.882;2023-07-13T00:12:52;6.18;;;4.90;;
70301;SDS011;57706;56.326;43.882;2023-07-13T00:15:22;6.60;;;4.88;;
70301;SDS011;57706;56.326;43.882;2023-07-13T00:17:51;9.90;;;5.28;;
70301;SDS011;57706;56.326;43.882;2023-07-13T00:20:19;5.45;;;4.30;;
70301;SDS011;57706;56.326;43.882;2023-07-13T00:22:48;7.22;;;4.70;;
70301;SDS011;57706;56.326;43.882;2023-07-13T00:25:15;9.18;;;4.45;;
70301;SDS011;57706;56.326;43.882;2023-07-13T00:27:42;10.20;;;5.65;;
70301;SDS011;57706;56.326;43.882;2023-07-13T00:30:09;10.50;;;6.40;;
70301;SDS011;57706;56.326;43.882;2023-07-13T00:32:36;7.95;;;4.47;;
70301;SDS011;57706;56.326;43.882;2023-07-13T00:35:03;9.80;;;5.40;;
70301;SDS011;57706;56.326;43.882;2023-07-13T00:37:31;10.15;;;6.32;;
70301;SDS011;57706;56.326;43.882;2023-07-13T00:39:57;10.05;;;5.70;;
70301;SDS011;57706;56.326;43.882;2023-07-13T00:42:23;9.77;;;6.30;;
70301;SDS011;57706;56.326;43.882;2023-07-13T00:45:02;10.70;;;6.05;;
70301;SDS011;57706;56.326;43.882;2023-07-13T00:47:51;8.88;;;4.90;;
70301;SDS011;57706;56.326;43.882;2023-07-13T00:50:18;8.02;;;5.22;;
70301;SDS011;57706;56.326;43.882;2023-07-13T00:52:46;8.70;;;5.10;;
70301;SDS011;57706;56.326;43.882;2023-07-13T00:55:16;11.20;;;4.53;;
70301;SDS011;57706;56.326;43.882;2023-07-13T00:57:43;7.07;;;4.57;;
70301;SDS011;57706;56.326;43.882;2023-07-13T01:00:10;5.95;;;3.65;;
70301;SDS011;57706;56.326;43.882;2023-07-13T01:02:38;10.38;;;4.10;;
70301;SDS011;57706;56.326;43.882;2023-07-13T01:05:11;6.25;;;3.97;;
70301;SDS011;57706;56.326;43.882;2023-07-13T01:07:39;7.35;;;4.05;;
70301;SDS011;57706;56.326;43.882;2023-07-13T01:10:07;11.68;;;4.72;;
70301;SDS011;57706;56.326;43.882;2023-07-13T01:12:34;6.20;;;3.80;;
70301;SDS011;57706;56.326;43.882;2023-07-13T01:15:00;8.45;;;4.35;;
70301;SDS011;57706;56.326;43.882;2023-07-13T01:17:30;9.75;;;4.18;;
70301;SDS011;57706;56.326;43.882;2023-07-13T01:19:58;6.82;;;4.57;;
70301;SDS011;57706;56.326;43.882;2023-07-13T01:22:25;10.98;;;4.18;;
70301;SDS011;57706;56.326;43.882;2023-07-13T01:24:53;6.90;;;4.95;;
70301;SDS011;57706;56.326;43.882;2023-07-13T01:27:21;8.70;;;5.53;;
70301;SDS011;57706;56.326;43.882;2023-07-13T01:29:50;12.73;;;6.50;;
70301;SDS011;57706;56.326;43.882;2023-07-13T01:32:19;7.35;;;5.88;;
70301;SDS011;57706;56.326;43.882;2023-07-13T01:34:50;10.45;;;7.22;;
70301;SDS011;57706;56.326;43.882;2023-07-13T01:37:20;9.40;;;5.88;;
70301;SDS011;57706;56.326;43.882;2023-07-13T01:39:47;8.15;;;6.40;;
70301;SDS011;57706;56.326;43.882;2023-07-13T01:42:13;10.50;;;7.68;;
70301;SDS011;57706;56.326;43.882;2023-07-13T01:44:40;10.77;;;8.77;;
70301;SDS011;57706;56.326;43.882;2023-07-13T01:47:07;11.50;;;7.82;;
70301;SDS011;57706;56.326;43.882;2023-07-13T01:49:33;14.13;;;9.20;;
70301;SDS011;57706;56.326;43.882;2023-07-13T01:51:59;12.55;;;8.43;;
70301;SDS011;57706;56.326;43.882;2023-07-13T01:54:25;14.75;;;8.73;;
70301;SDS011;57706;56.326;43.882;2023-07-13T01:56:51;10.13;;;7.13;;
70301;SDS011;57706;56.326;43.882;2023-07-13T01:59:17;11.82;;;7.47;;
70301;SDS011;57706;56.326;43.882;2023-07-13T02:01:43;10.27;;;7.20;;
70301;SDS011;57706;56.326;43.882;2023-07-13T02:04:09;8.50;;;5.85;;
70301;SDS011;57706;56.326;43.882;2023-07-13T02:06:36;10.80;;;7.50;;
70301;SDS011;57706;56.326;43.882;2023-07-13T02:09:02;9.23;;;7.07;;
70301;SDS011;57706;56.326;43.882;2023-07-13T02:11:32;9.23;;;6.40;;
70301;SDS011;57706;56.326;43.882;2023-07-13T02:14:01;7.68;;;5.00;;
70301;SDS011;57706;56.326;43.882;2023-07-13T02:16:30;12.90;;;5.85;;
70301;SDS011;57706;56.326;43.882;2023-07-13T02:18:57;6.07;;;4.40;;
70301;SDS011;57706;56.326;43.882;2023-07-13T02:21:23;8.05;;;4.13;;
70301;SDS011;57706;56.326;43.882;2023-07-13T02:23:51;8.25;;;5.07;;
70301;SDS011;57706;56.326;43.882;2023-07-13T02:26:18;6.93;;;4.47;;
70301;SDS011;57706;56.326;43.882;2023-07-13T02:28:44;10.02;;;4.35;;
70301;SDS011;57706;56.326;43.882;2023-07-13T02:31:13;5.55;;;4.40;;
70301;SDS011;57706;56.326;43.882;2023-07-13T02:33:40;8.13;;;3.90;;
70301;SDS011;57706;56.326;43.882;2023-07-13T02:36:06;6.22;;;3.65;;
70301;SDS011;57706;56.326;43.882;2023-07-13T02:38:32;6.65;;;3.85;;
70301;SDS011;57706;56.326;43.882;2023-07-13T02:41:02;5.65;;;4.03;;
70301;SDS011;57706;56.326;43.882;2023-07-13T02:43:32;8.90;;;3.55;;
70301;SDS011;57706;56.326;43.882;2023-07-13T02:45:58;7.90;;;3.35;;
70301;SDS011;57706;56.326;43.882;2023-07-13T02:48:29;8.10;;;3.40;;
70301;SDS011;57706;56.326;43.882;2023-07-13T02:50:57;5.97;;;3.45;;
70301;SDS011;57706;56.326;43.882;2023-07-13T02:53:22;7.50;;;3.80;;
70301;SDS011;57706;56.326;43.882;2023-07-13T02:55:48;5.97;;;3.10;;
70301;SDS011;57706;56.326;43.882;2023-07-13T02:58:14;4.20;;;3.17;;
70301;SDS011;57706;56.326;43.882;2023-07-13T03:00:46;7.90;;;3.15;;
70301;SDS011;57706;56.326;43.882;2023-07-13T03:03:13;7.88;;;3.47;;
70301;SDS011;57706;56.326;43.882;2023-07-13T03:05:41;5.45;;;3.35;;
70301;SDS011;57706;56.326;43.882;2023-07-13T03:08:09;6.63;;;3.60;;
70301;SDS011;57706;56.326;43.882;2023-07-13T03:10:35;4.35;;;3.20;;
70301;SDS011;57706;56.326;43.882;2023-07-13T03:13:02;10.18;;;3.17;;
70301;SDS011;57706;56.326;43.882;2023-07-13T03:15:28;8.02;;;3.72;;
70301;SDS011;57706;56.326;43.882;2023-07-13T03:17:56;4.97;;;3.38;;
70301;SDS011;57706;56.326;43.882;2023-07-13T03:20:22;4.78;;;3.03;;
70301;SDS011;57706;56.326;43.882;2023-07-13T03:22:48;8.32;;;3.20;;
70301;SDS011;57706;56.326;43.882;2023-07-13T03:25:15;5.20;;;3.05;;
70301;SDS011;57706;56.326;43.882;2023-07-13T03:27:42;7.43;;;3.92;;
70301;SDS011;57706;56.326;43.882;2023-07-13T03:30:08;6.50;;;3.80;;
70301;SDS011;57706;56.326;43.882;2023-07-13T03:32:35;4.32;;;3.47;;
70301;SDS011;57706;56.326;43.882;2023-07-13T03:35:01;4.45;;;3.03;;
70301;SDS011;57706;56.326;43.882;2023-07-13T03:37:30;5.40;;;3.45;;
70301;SDS011;57706;56.326;43.882;2023-07-13T03:39:56;3.80;;;3.00;;
70301;SDS011;57706;56.326;43.882;2023-07-13T03:42:22;4.07;;;2.90;;
70301;SDS011;57706;56.326;43.882;2023-07-13T03:44:48;4.28;;;2.88;;
70301;SDS011;57706;56.326;43.882;2023-07-13T03:47:18;4.38;;;2.60;;
70301;SDS011;57706;56.326;43.882;2023-07-13T03:49:45;4.50;;;3.47;;
70301;SDS011;57706;56.326;43.882;2023-07-13T03:52:12;5.28;;;3.10;;
70301;SDS011;57706;56.326;43.882;2023-07-13T03:54:38;4.50;;;2.90;;
70301;SDS011;57706;56.326;43.882;2023-07-13T03:57:05;4.80;;;2.85;;
70301;SDS011;57706;56.326;43.882;2023-07-13T03:59:33;4.25;;;3.05;;
70301;SDS011;57706;56.326;43.882;2023-07-13T04:02:00;6.57;;;3.10;;
70301;SDS011;57706;56.326;43.882;2023-07-13T04:04:27;5.70;;;2.70;;
70301;SDS011;57706;56.326;43.882;2023-07-13T04:06:53;10.27;;;3.22;;
70301;SDS011;57706;56.326;43.882;2023-07-13T04:09:19;4.32;;;2.80;;
70301;SDS011;57706;56.326;43.882;2023-07-13T04:11:46;6.13;;;2.80;;
70301;SDS011;57706;56.326;43.882;2023-07-13T04:14:12;3.60;;;2.65;;
70301;SDS011;57706;56.326;43.882;2023-07-13T04:16:38;4.35;;;2.53;;
70301;SDS011;57706;56.326;43.882;2023-07-13T04:19:04;5.18;;;2.85;;
70301;SDS011;57706;56.326;43.882;2023-07-13T04:21:30;3.33;;;2.72;;
70301;SDS011;57706;56.326;43.882;2023-07-13T04:23:57;5.68;;;3.17;;
70301;SDS011;57706;56.326;43.882;2023-07-13T04:26:23;3.15;;;2.85;;
70301;SDS011;57706;56.326;43.882;2023-07-13T04:28:49;3.40;;;2.67;;
70301;SDS011;57706;56.326;43.882;2023-07-13T04:31:16;3.20;;;2.90;;
70301;SDS011;57706;56.326;43.882;2023-07-13T04:33:42;5.32;;;3.38;;
70301;SDS011;57706;56.326;43.882;2023-07-13T04:36:08;4.45;;;2.60;;
70301;SDS011;57706;56.326;43.882;2023-07-13T04:38:35;6.28;;;3.17;;
70301;SDS011;57706;56.326;43.882;2023-07-13T04:41:05;3.70;;;2.47;;
70301;SDS011;57706;56.326;43.882;2023-07-13T04:43:32;7.15;;;3.08;;
70301;SDS011;57706;56.326;43.882;2023-07-13T04:46:03;3.35;;;2.33;;
70301;SDS011;57706;56.326;43.882;2023-07-13T04:48:30;5.57;;;2.45;;
70301;SDS011;57706;56.326;43.882;2023-07-13T04:50:57;3.30;;;2.85;;
70301;SDS011;57706;56.326;43.882;2023-07-13T04:53:24;5.32;;;2.47;;
70301;SDS011;57706;56.326;43.882;2023-07-13T04:55:50;5.13;;;3.00;;
70301;SDS011;57706;56.326;43.882;2023-07-13T04:58:16;5.07;;;2.22;;
70301;SDS011;57706;56.326;43.882;2023-07-13T05:00:42;2.65;;;2.45;;
70301;SDS011;57706;56.326;43.882;2023-07-13T05:03:08;3.28;;;2.90;;
70301;SDS011;57706;56.326;43.882;2023-07-13T05:05:34;6.43;;;2.60;;
70301;SDS011;57706;56.326;43.882;2023-07-13T05:08:00;3.25;;;2.42;;
70301;SDS011;57706;56.326;43.882;2023-07-13T05:10:27;3.75;;;2.70;;
70301;SDS011;57706;56.326;43.882;2023-07-13T05:12:53;5.55;;;2.38;;
70301;SDS011;57706;56.326;43.882;2023-07-13T05:15:22;5.70;;;2.80;;
70301;SDS011;57706;56.326;43.882;2023-07-13T05:17:49;7.15;;;2.60;;
70301;SDS011;57706;56.326;43.882;2023-07-13T05:20:16;3.50;;;2.50;;
70301;SDS011;57706;56.326;43.882;2023-07-13T05:22:43;10.00;;;2.60;;
70301;SDS011;57706;56.326;43.882;2023-07-13T05:25:09;8.48;;;3.42;;
70301;SDS011;57706;56.326;43.882;2023-07-13T05:27:35;4.75;;;2.60;;
70301;SDS011;57706;56.326;43.882;2023-07-13T05:30:02;2.90;;;2.28;;
70301;SDS011;57706;56.326;43.882;2023-07-13T05:32:31;3.90;;;2.70;;
70301;SDS011;57706;56.326;43.882;2023-07-13T05:34:58;4.45;;;2.40;;
70301;SDS011;57706;56.326;43.882;2023-07-13T05:37:24;5.28;;;2.20;;
70301;SDS011;57706;56.326;43.882;2023-07-13T05:39:50;4.22;;;1.98;;
70301;SDS011;57706;56.326;43.882;2023-07-13T05:42:16;7.10;;;2.33;;
70301;SDS011;57706;56.326;43.882;2023-07-13T05:44:42;5.45;;;2.10;;
70301;SDS011;57706;56.326;43.882;2023-07-13T05:47:08;3.72;;;2.03;;
70301;SDS011;57706;56.326;43.882;2023-07-13T05:49:33;6.38;;;2.95;;
70301;SDS011;57706;56.326;43.882;2023-07-13T05:51:59;2.97;;;1.90;;
70301;SDS011;57706;56.326;43.882;2023-07-13T05:54:26;7.55;;;2.28;;
70301;SDS011;57706;56.326;43.882;2023-07-13T05:56:52;7.95;;;1.90;;
70301;SDS011;57706;56.326;43.882;2023-07-13T05:59:18;3.17;;;2.22;;
70301;SDS011;57706;56.326;43.882;2023-07-13T06:01:44;7.97;;;2.40;;
70301;SDS011;57706;56.326;43.882;2023-07-13T06:04:10;3.40;;;1.85;;
70301;SDS011;57706;56.326;43.882;2023-07-13T06:06:36;3.72;;;2.40;;
70301;SDS011;57706;56.326;43.882;2023-07-13T06:09:02;4.68;;;2.22;;
70301;SDS011;57706;56.326;43.882;2023-07-13T06:11:28;2.58;;;1.88;;
70301;SDS011;57706;56.326;43.882;2023-07-13T06:13:55;2.05;;;1.85;;
70301;SDS011;57706;56.326;43.882;2023-07-13T06:16:22;4.15;;;1.90;;
70301;SDS011;57706;56.326;43.882;2023-07-13T06:18:49;5.90;;;1.90;;
70301;SDS011;57706;56.326;43.882;2023-07-13T06:21:20;3.85;;;2.47;;
70301;SDS011;57706;56.326;43.882;2023-07-13T06:23:48;3.80;;;2.22;;
70301;SDS011;57706;56.326;43.882;2023-07-13T06:26:16;2.85;;;2.15;;
70301;SDS011;57706;56.326;43.882;2023-07-13T06:28:43;4.00;;;2.40;;
70301;SDS011;57706;56.326;43.882;2023-07-13T06:31:10;3.97;;;1.98;;
70301;SDS011;57706;56.326;43.882;2023-07-13T06:33:37;2.55;;;2.30;;
70301;SDS011;57706;56.326;43.882;2023-07-13T06:36:04;6.50;;;2.10;;
70301;SDS011;57706;56.326;43.882;2023-07-13T06:38:32;2.25;;;1.75;;
70301;SDS011;57706;56.326;43.882;2023-07-13T06:40:58;4.15;;;2.13;;
70301;SDS011;57706;56.326;43.882;2023-07-13T06:43:24;2.45;;;1.77;;
70301;SDS011;57706;56.326;43.882;2023-07-13T06:45:54;3.80;;;1.63;;
70301;SDS011;57706;56.326;43.882;2023-07-13T06:48:21;2.05;;;1.50;;
70301;SDS011;57706;56.326;43.882;2023-07-13T06:50:47;4.10;;;2.03;;
70301;SDS011;57706;56.326;43.882;2023-07-13T06:53:15;5.72;;;1.90;;
70301;SDS011;57706;56.326;43.882;2023-07-13T06:55:43;1.90;;;1.50;;
70301;SDS011;57706;56.326;43.882;2023-07-13T06:58:10;6.70;;;1.92;;
70301;SDS011;57706;56.326;43.882;2023-07-13T07:00:36;5.88;;;1.83;;
70301;SDS011;57706;56.326;43.882;2023-07-13T07:03:02;4.28;;;1.95;;
70301;SDS011;57706;56.326;43.882;2023-07-13T07:05:28;4.32;;;1.60;;
70301;SDS011;57706;56.326;43.882;2023-07-13T07:07:54;4.18;;;1.88;;
70301;SDS011;57706;56.326;43.882;2023-07-13T07:10:21;4.20;;;1.80;;
70301;SDS011;57706;56.326;43.882;2023-07-13T07:12:47;4.60;;;1.70;;
70301;SDS011;57706;56.326;43.882;2023-07-13T07:15:13;2.47;;;1.48;;
70301;SDS011;57706;56.326;43.882;2023-07-13T07:17:39;6.10;;;2.00;;
70301;SDS011;57706;56.326;43.882;2023-07-13T07:20:05;5.32;;;2.10;;
70301;SDS011;57706;56.326;43.882;2023-07-13T07:22:32;3.80;;;2.30;;
70301;SDS011;57706;56.326;43.882;2023-07-13T07:24:58;3.95;;;1.80;;
70301;SDS011;57706;56.326;43.882;2023-07-13T07:27:24;5.22;;;1.70;;
70301;SDS011;57706;56.326;43.882;2023-07-13T07:29:51;9.27;;;1.95;;
70301;SDS011;57706;56.326;43.882;2023-07-13T07:32:17;11.48;;;2.35;;
70301;SDS011;57706;56.326;43.882;2023-07-13T07:34:42;3.10;;;1.80;;
70301;SDS011;57706;56.326;43.882;2023-07-13T07:37:09;7.35;;;1.75;;
70301;SDS011;57706;56.326;43.882;2023-07-13T07:39:37;2.22;;;1.90;;
70301;SDS011;57706;56.326;43.882;2023-07-13T07:42:03;7.32;;;2.03;;
70301;SDS011;57706;56.326;43.882;2023-07-13T07:44:31;5.43;;;2.30;;
70301;SDS011;57706;56.326;43.882;2023-07-13T07:46:57;3.75;;;1.80;;
70301;SDS011;57706;56.326;43.882;2023-07-13T07:49:24;8.40;;;2.22;;
70301;SDS011;57706;56.326;43.882;2023-07-13T07:51:50;3.47;;;1.70;;
70301;SDS011;57706;56.326;43.882;2023-07-13T07:54:16;4.43;;;2.00;;
70301;SDS011;57706;56.326;43.882;2023-07-13T07:56:42;4.18;;;2.20;;
70301;SDS011;57706;56.326;43.882;2023-07-13T07:59:08;4.78;;;2.10;;
70301;SDS011;57706;56.326;43.882;2023-07-13T08:01:35;3.63;;;1.90;;
70301;SDS011;57706;56.326;43.882;2023-07-13T08:04:01;2.83;;;1.73;;
70301;SDS011;57706;56.326;43.882;2023-07-13T08:06:27;4.75;;;2.35;;
70301;SDS011;57706;56.326;43.882;2023-07-13T08:08:54;2.78;;;2.03;;
70301;SDS011;57706;56.326;43.882;2023-07-13T08:11:21;4.13;;;1.90;;
70301;SDS011;57706;56.326;43.882;2023-07-13T08:13:48;3.30;;;1.98;;
70301;SDS011;57706;56.326;43.882;2023-07-13T08:16:15;5.43;;;2.33;;
70301;SDS011;57706;56.326;43.882;2023-07-13T08:18:41;2.60;;;1.90;;
70301;SDS011;57706;56.326;43.882;2023-07-13T08:21:07;3.08;;;2.17;;
70301;SDS011;57706;56.326;43.882;2023-07-13T08:23:34;3.10;;;1.55;;
70301;SDS011;57706;56.326;43.882;2023-07-13T08:26:01;5.57;;;2.28;;
70301;SDS011;57706;56.326;43.882;2023-07-13T08:28:27;4.95;;;2.25;;
70301;SDS011;57706;56.326;43.882;2023-07-13T08:30:54;4.68;;;2.13;;
70301;SDS011;57706;56.326;43.882;2023-07-13T08:33:20;4.03;;;2.13;;
70301;SDS011;57706;56.326;43.882;2023-07-13T08:35:49;4.25;;;1.98;;
70301;SDS011;57706;56.326;43.882;2023-07-13T08:38:17;3.33;;;2.13;;
70301;SDS011;57706;56.326;43.882;2023-07-13T08:40:44;2.20;;;2.00;;
70301;SDS011;57706;56.326;43.882;2023-07-13T08:43:18;3.13;;;2.20;;
70301;SDS011;57706;56.326;43.882;2023-07-13T08:46:04;4.43;;;2.50;;
70301;SDS011;57706;56.326;43.882;2023-07-13T08:53:57;6.40;;;2.58;;
70301;SDS011;57706;56.326;43.882;2023-07-13T08:56:28;4.78;;;2.65;;
70301;SDS011;57706;56.326;43.882;2023-07-13T08:59:00;6.10;;;3.63;;
70301;SDS011;57706;56.326;43.882;2023-07-13T09:01:49;7.05;;;3.42;;
70301;SDS011;57706;56.326;43.882;2023-07-13T09:04:24;8.23;;;3.85;;
70301;SDS011;57706;56.326;43.882;2023-07-13T09:09:39;6.53;;;3.70;;
70301;SDS011;57706;56.326;43.882;2023-07-13T09:12:19;5.15;;;4.30;;
70301;SDS011;57706;56.326;43.882;2023-07-13T09:14:57;5.25;;;3.63;;
70301;SDS011;57706;56.326;43.882;2023-07-13T09:17:29;6.15;;;4.45;;
70301;SDS011;57706;56.326;43.882;2023-07-13T09:20:27;7.28;;;4.72;;
70301;SDS011;57706;56.326;43.882;2023-07-13T09:22:59;6.20;;;3.55;;
70301;SDS011;57706;56.326;43.882;2023-07-13T09:25:31;8.93;;;4.40;;
70301;SDS011;57706;56.326;43.882;2023-07-13T09:28:11;6.68;;;3.50;;
70301;SDS011;57706;56.326;43.882;2023-07-13T09:30:49;7.38;;;4.30;;
70301;SDS011;57706;56.326;43.882;2023-07-13T09:33:20;6.57;;;3.80;;
70301;SDS011;57706;56.326;43.882;2023-07-13T09:35:46;6.07;;;3.65;;
70301;SDS011;57706;56.326;43.882;2023-07-13T09:38:16;6.78;;;4.30;;
70301;SDS011;57706;56.326;43.882;2023-07-13T09:43:24;12.35;;;5.43;;
70301;SDS011;57706;56.326;43.882;2023-07-13T09:45:50;6.07;;;4.38;;
70301;SDS011;57706;56.326;43.882;2023-07-13T09:48:17;6.40;;;4.50;;
70301;SDS011;57706;56.326;43.882;2023-07-13T09:50:44;5.85;;;3.63;;
70301;SDS011;57706;56.326;43.882;2023-07-13T09:53:17;6.28;;;4.30;;
70301;SDS011;57706;56.326;43.882;2023-07-13T09:55:48;4.60;;;4.07;;
70301;SDS011;57706;56.326;43.882;2023-07-13T10:03:31;4.07;;;3.42;;
70301;SDS011;57706;56.326;43.882;2023-07-13T10:06:10;8.80;;;4.70;;
70301;SDS011;57706;56.326;43.882;2023-07-13T10:08:47;6.05;;;4.13;;
70301;SDS011;57706;56.326;43.882;2023-07-13T10:13:45;8.18;;;3.80;;
70301;SDS011;57706;56.326;43.882;2023-07-13T10:16:20;7.15;;;4.30;;
70301;SDS011;57706;56.326;43.882;2023-07-13T10:24:19;5.38;;;3.67;;
70301;SDS011;57706;56.326;43.882;2023-07-13T10:26:58;6.50;;;4.65;;
70301;SDS011;57706;56.326;43.882;2023-07-13T10:29:26;5.63;;;4.10;;
70301;SDS011;57706;56.326;43.882;2023-07-13T10:31:54;6.53;;;4.50;;
70301;SDS011;57706;56.326;43.882;2023-07-13T10:34:22;4.97;;;4.22;;
70301;SDS011;57706;56.326;43.882;2023-07-13T10:36:49;4.85;;;3.38;;
70301;SDS011;57706;56.326;43.882;2023-07-13T10:39:25;6.43;;;3.70;;
70301;SDS011;57706;56.326;43.882;2023-07-13T10:41:59;4.53;;;3.10;;
70301;SDS011;57706;56.326;43.882;2023-07-13T10:44:30;14.70;;;4.38;;
70301;SDS011;57706;56.326;43.882;2023-07-13T10:46:58;6.75;;;3.45;;
70301;SDS011;57706;56.326;43.882;2023-07-13T10:49:32;3.58;;;3.28;;
70301;SDS011;57706;56.326;43.882;2023-07-13T10:52:00;4.20;;;3.80;;
70301;SDS011;57706;56.326;43.882;2023-07-13T10:59:43;5.93;;;3.70;;
70301;SDS011;57706;56.326;43.882;2023-07-13T11:02:24;4.60;;;4.18;;
70301;SDS011;57706;56.326;43.882;2023-07-13T11:04:53;5.07;;;4.13;;
70301;SDS011;57706;56.326;43.882;2023-07-13T11:07:25;7.25;;;4.38;;
70301;SDS011;57706;56.326;43.882;2023-07-13T11:09:56;5.75;;;3.80;;
70301;SDS011;57706;56.326;43.882;2023-07-13T11:20:20;7.20;;;3.58;;
70301;SDS011;57706;56.326;43.882;2023-07-13T11:27:46;3.58;;;2.60;;
70301;SDS011;57706;56.326;43.882;2023-07-13T11:35:42;4.35;;;2.53;;
70301;SDS011;57706;56.326;43.882;2023-07-13T11:40:54;4.30;;;2.20;;
70301;SDS011;57706;56.326;43.882;2023-07-13T11:43:21;3.95;;;2.28;;
70301;SDS011;57706;56.326;43.882;2023-07-13T11:45:50;4.47;;;2.28;;
70301;SDS011;57706;56.326;43.882;2023-07-13T11:48:24;4.07;;;2.50;;
70301;SDS011;57706;56.326;43.882;2023-07-13T11:50:57;3.17;;;2.10;;
70301;SDS011;57706;56.326;43.882;2023-07-13T11:55:51;2.80;;;1.98;;
70301;SDS011;57706;56.326;43.882;2023-07-13T11:58:19;5.68;;;2.13;;
70301;SDS011;57706;56.326;43.882;2023-07-13T12:00:49;3.40;;;2.20;;
70301;SDS011;57706;56.326;43.882;2023-07-13T12:03:18;3.33;;;1.73;;
70301;SDS011;57706;56.326;43.882;2023-07-13T12:06:23;6.68;;;2.35;;
70301;SDS011;57706;56.326;43.882;2023-07-13T12:08:48;6.25;;;1.90;;
70301;SDS011;57706;56.326;43.882;2023-07-13T12:11:15;8.25;;;2.17;;
70301;SDS011;57706;56.326;43.882;2023-07-13T12:13:43;2.25;;;1.98;;
70301;SDS011;57706;56.326;43.882;2023-07-13T12:16:31;5.45;;;1.80;;
70301;SDS011;57706;56.326;43.882;2023-07-13T12:19:01;2.53;;;1.98;;
70301;SDS011;57706;56.326;43.882;2023-07-13T12:21:32;4.25;;;1.88;;
70301;SDS011;57706;56.326;43.882;2023-07-13T12:24:03;4.43;;;2.42;;
70301;SDS011;57706;56.326;43.882;2023-07-13T12:26:30;6.18;;;2.55;;
70301;SDS011;57706;56.326;43.882;2023-07-13T12:28:59;6.35;;;2.40;;
70301;SDS011;57706;56.326;43.882;2023-07-13T12:33:58;3.58;;;2.60;;
70301;SDS011;57706;56.326;43.882;2023-07-13T12:36:33;5.85;;;3.60;;
70301;SDS011;57706;56.326;43.882;2023-07-13T12:39:04;7.38;;;3.67;;
70301;SDS011;57706;56.326;43.882;2023-07-13T12:41:49;4.47;;;3.35;;
70301;SDS011;57706;56.326;43.882;2023-07-13T12:44:18;5.93;;;3.63;;
70301;SDS011;57706;56.326;43.882;2023-07-13T12:47:08;11.32;;;3.90;;
70301;SDS011;57706;56.326;43.882;2023-07-13T12:49:40;6.88;;;3.78;;
70301;SDS011;57706;56.326;43.882;2023-07-13T12:52:14;5.30;;;2.97;;
70301;SDS011;57706;56.326;43.882;2023-07-13T12:54:57;7.72;;;3.42;;
70301;SDS011;57706;56.326;43.882;2023-07-13T12:57:29;9.75;;;3.55;;
70301;SDS011;57706;56.326;43.882;2023-07-13T12:59:55;5.90;;;3.88;;
70301;SDS011;57706;56.326;43.882;2023-07-13T13:02:32;6.82;;;2.70;;
70301;SDS011;57706;56.326;43.882;2023-07-13T13:05:02;13.82;;;5.30;;
70301;SDS011;57706;56.326;43.882;2023-07-13T13:07:30;7.32;;;4.10;;
70301;SDS011;57706;56.326;43.882;2023-07-13T13:09:56;3.13;;;2.20;;
70301;SDS011;57706;56.326;43.882;2023-07-13T13:12:22;8.52;;;2.35;;
70301;SDS011;57706;56.326;43.882;2023-07-13T13:14:51;4.57;;;2.38;;
70301;SDS011;57706;56.326;43.882;2023-07-13T13:17:22;6.93;;;2.40;;
70301;SDS011;57706;56.326;43.882;2023-07-13T13:19:50;6.97;;;2.80;;
70301;SDS011;57706;56.326;43.882;2023-07-13T13:22:20;5.50;;;2.70;;
70301;SDS011;57706;56.326;43.882;2023-07-13T13:24:46;4.70;;;2.58;;
70301;SDS011;57706;56.326;43.882;2023-07-13T13:27:16;3.60;;;2.38;;
70301;SDS011;57706;56.326;43.882;2023-07-13T13:29:43;5.95;;;2.22;;
70301;SDS011;57706;56.326;43.882;2023-07-13T13:32:14;5.70;;;2.38;;
70301;SDS011;57706;56.326;43.882;2023-07-13T13:34:40;4.30;;;2.05;;
70301;SDS011;57706;56.326;43.882;2023-07-13T13:37:15;3.58;;;2.33;;
70301;SDS011;57706;56.326;43.882;2023-07-13T13:39:46;3.75;;;1.70;;
70301;SDS011;57706;56.326;43.882;2023-07-13T13:42:12;2.35;;;1.90;;
70301;SDS011;57706;56.326;43.882;2023-07-13T13:44:38;2.35;;;1.92;;
70301;SDS011;57706;56.326;43.882;2023-07-13T13:47:21;4.88;;;2.05;;
70301;SDS011;57706;56.326;43.882;2023-07-13T13:49:56;3.63;;;2.33;;
70301;SDS011;57706;56.326;43.882;2023-07-13T13:52:22;3.90;;;2.30;;
70301;SDS011;57706;56.326;43.882;2023-07-13T13:54:49;3.85;;;2.10;;
70301;SDS011;57706;56.326;43.882;2023-07-13T13:57:15;4.35;;;2.63;;
70301;SDS011;57706;56.326;43.882;2023-07-13T13:59:41;6.07;;;2.25;;
70301;SDS011;57706;56.326;43.882;2023-07-13T14:05:03;4.45;;;2.63;;
70301;SDS011;57706;56.326;43.882;2023-07-13T14:07:30;5.60;;;3.22;;
70301;SDS011;57706;56.326;43.882;2023-07-13T14:09:57;4.13;;;2.22;;
70301;SDS011;57706;56.326;43.882;2023-07-13T14:12:26;2.63;;;2.20;;
70301;SDS011;57706;56.326;43.882;2023-07-13T14:14:56;3.35;;;2.25;;
70301;SDS011;57706;56.326;43.882;2023-07-13T14:17:24;6.07;;;2.58;;
70301;SDS011;57706;56.326;43.882;2023-07-13T14:19:52;6.53;;;2.60;;
70301;SDS011;57706;56.326;43.882;2023-07-13T14:22:26;3.75;;;2.70;;
70301;SDS011;57706;56.326;43.882;2023-07-13T14:24:53;4.13;;;3.00;;
70301;SDS011;57706;56.326;43.882;2023-07-13T14:27:20;4.35;;;2.92;;
70301;SDS011;57706;56.326;43.882;2023-07-13T14:29:46;4.57;;;2.80;;
70301;SDS011;57706;56.326;43.882;2023-07-13T14:32:12;4.15;;;2.40;;
70301;SDS011;57706;56.326;43.882;2023-07-13T14:34:39;2.50;;;2.30;;
70301;SDS011;57706;56.326;43.882;2023-07-13T14:37:05;4.43;;;2.28;;
70301;SDS011;57706;56.326;43.882;2023-07-13T14:39:38;5.07;;;2.60;;
70301;SDS011;57706;56.326;43.882;2023-07-13T14:42:04;3.60;;;2.65;;
70301;SDS011;57706;56.326;43.882;2023-07-13T14:44:30;5.60;;;2.00;;
70301;SDS011;57706;56.326;43.882;2023-07-13T14:46:57;5.50;;;2.30;;
70301;SDS011;57706;56.326;43.882;2023-07-13T14:54:48;7.88;;;2.88;;
70301;SDS011;57706;56.326;43.882;2023-07-13T14:57:16;3.00;;;2.40;;
70301;SDS011;57706;56.326;43.882;2023-07-13T14:59:44;4.72;;;2.40;;
70301;SDS011;57706;56.326;43.882;2023-07-13T15:02:45;8.00;;;2.58;;
70301;SDS011;57706;56.326;43.882;2023-07-13T15:05:18;3.22;;;2.20;;
70301;SDS011;57706;56.326;43.882;2023-07-13T15:07:58;3.80;;;2.55;;
70301;SDS011;57706;56.326;43.882;2023-07-13T15:10:30;6.65;;;2.55;;
70301;SDS011;57706;56.326;43.882;2023-07-13T15:12:59;4.63;;;2.63;;
70301;SDS011;57706;56.326;43.882;2023-07-13T15:15:28;5.60;;;3.05;;
70301;SDS011;57706;56.326;43.882;2023-07-13T15:17:57;4.13;;;2.75;;
70301;SDS011;57706;56.326;43.882;2023-07-13T15:20:28;6.15;;;2.88;;
70301;SDS011;57706;56.326;43.882;2023-07-13T15:25:25;3.70;;;2.63;;
70301;SDS011;57706;56.326;43.882;2023-07-13T15:27:53;4.45;;;2.60;;
70301;SDS011;57706;56.326;43.882;2023-07-13T15:30:20;3.42;;;2.60;;
70301;SDS011;57706;56.326;43.882;2023-07-13T15:32:47;6.65;;;2.70;;
70301;SDS011;57706;56.326;43.882;2023-07-13T15:35:20;6.50;;;2.60;;
70301;SDS011;57706;56.326;43.882;2023-07-13T15:37:51;7.15;;;2.60;;
70301;SDS011;57706;56.326;43.882;2023-07-13T15:40:18;12.98;;;2.42;;
70301;SDS011;57706;56.326;43.882;2023-07-13T15:42:47;6.63;;;2.70;;
70301;SDS011;57706;56.326;43.882;2023-07-13T15:45:20;2.25;;;2.05;;
70301;SDS011;57706;56.326;43.882;2023-07-13T15:47:48;2.85;;;2.20;;